createdAt,value
2023-02-15T00:00:18.955Z,18580.41
2023-02-15T00:02:47.226Z,18600.72
2023-02-15T00:05:16.874Z,18588.53
2023-02-15T00:07:44.994Z,18590.56
2023-02-15T00:10:13.318Z,18602.75
2023-02-15T00:12:41.412Z,18602.75
2023-02-15T00:15:10.344Z,18549.91
2023-02-15T00:17:38.433Z,18586.50
2023-02-15T00:20:08.405Z,18558.03
2023-02-15T00:22:37.895Z,18556.00
2023-02-15T00:25:06.977Z,18608.84
2023-02-15T00:27:35.973Z,18545.84
2023-02-15T00:30:04.786Z,18590.56
2023-02-15T00:32:33.093Z,18521.47
2023-02-15T00:35:01.204Z,18553.97
2023-02-15T00:37:29.306Z,18584.47
2023-02-15T00:39:58.960Z,18553.97
2023-02-15T00:42:27.230Z,18543.81
2023-02-15T00:44:55.332Z,18568.19
2023-02-15T00:47:23.437Z,18558.03
2023-02-15T00:49:51.534Z,18551.94
2023-02-15T00:52:19.670Z,18556.00
2023-02-15T00:54:47.781Z,18566.16
2023-02-15T00:57:17.227Z,18564.13
2023-02-15T00:59:45.339Z,18558.03
2023-02-15T01:02:13.503Z,18553.97
2023-02-15T01:04:41.887Z,18556.00
2023-02-15T01:07:10.130Z,18525.53
2023-02-15T01:09:38.222Z,18551.94
2023-02-15T01:12:06.783Z,18564.13
2023-02-15T01:14:36.227Z,18572.25
2023-02-15T01:17:04.372Z,18572.25
2023-02-15T01:19:32.522Z,18543.81
2023-02-15T01:22:00.568Z,18525.53
2023-02-15T01:24:28.688Z,18529.59
2023-02-15T01:26:56.773Z,18507.25
2023-02-15T01:29:24.942Z,18564.13
2023-02-15T01:31:54.547Z,18553.97
2023-02-15T01:34:22.868Z,18529.59
2023-02-15T01:36:50.980Z,18513.34
2023-02-15T01:39:19.112Z,18523.50
2023-02-15T01:41:47.201Z,18539.75
2023-02-15T01:44:50.236Z,18535.69
2023-02-15T01:47:28.819Z,18553.97
2023-02-15T01:50:09.758Z,18549.91
2023-02-15T01:52:47.065Z,18519.44
2023-02-15T01:55:15.917Z,18523.50
2023-02-15T01:57:47.151Z,18531.63
2023-02-15T02:00:17.989Z,18547.88
2023-02-15T02:02:51.777Z,18519.44
2023-02-15T02:05:20.229Z,18527.56
2023-02-15T02:07:52.315Z,18519.44
2023-02-15T02:10:24.594Z,18529.59
2023-02-15T02:12:58.858Z,18505.22
2023-02-15T02:15:41.071Z,18480.84
2023-02-15T02:18:26.544Z,18517.41
2023-02-15T02:21:39.522Z,18553.97
2023-02-15T02:24:50.685Z,18519.44
2023-02-15T02:27:32.263Z,18523.50
2023-02-15T02:30:37.253Z,18533.66
2023-02-15T02:33:43.375Z,18501.16
2023-02-15T02:36:24.799Z,18505.22
2023-02-15T02:39:13.330Z,18537.72
2023-02-15T02:41:57.684Z,18509.28
2023-02-15T02:44:33.649Z,18556.00
2023-02-15T02:47:09.041Z,18513.34
2023-02-15T02:49:41.637Z,18497.09
2023-02-15T02:52:40.121Z,18507.25
2023-02-15T02:55:15.079Z,18521.47
2023-02-15T02:57:55.656Z,18497.09
2023-02-15T03:00:27.578Z,18493.03
2023-02-15T03:03:06.002Z,18480.84
2023-02-15T03:05:42.615Z,18507.25
2023-02-15T03:08:12.896Z,18497.09
2023-02-15T03:10:43.449Z,18482.88
2023-02-15T03:13:11.610Z,18493.03
2023-02-15T03:16:02.494Z,18509.28
2023-02-15T03:18:37.845Z,18501.16
2023-02-15T03:21:10.201Z,18511.31
2023-02-15T03:23:41.213Z,18523.50
2023-02-15T03:26:12.069Z,18529.59
2023-02-15T03:28:48.232Z,18495.06
2023-02-15T03:31:20.446Z,18525.53
2023-02-15T03:33:57.092Z,18507.25
2023-02-15T03:36:38.736Z,18517.41
2023-02-15T03:39:17.231Z,18509.28
2023-02-15T03:41:56.853Z,18553.97
2023-02-15T03:44:31.088Z,18529.59
2023-02-15T03:47:08.083Z,18501.16
2023-02-15T03:49:46.601Z,18545.84
2023-02-15T03:52:17.468Z,18509.28
2023-02-15T03:54:47.407Z,18539.75
2023-02-15T03:57:40.372Z,18513.34
2023-02-15T04:00:33.339Z,18497.09
2023-02-15T04:03:28.231Z,18515.38
2023-02-15T04:05:56.358Z,18505.22
2023-02-15T04:08:46.057Z,18503.19
2023-02-15T04:11:13.293Z,18486.94
2023-02-15T04:13:41.459Z,18497.09
2023-02-15T04:16:08.942Z,18495.06
2023-02-15T04:18:57.966Z,18503.19
2023-02-15T04:21:45.934Z,18509.28
2023-02-15T04:24:33.642Z,18517.41
2023-02-15T04:27:03.236Z,18484.91
2023-02-15T04:29:33.259Z,18509.28
2023-02-15T04:32:03.516Z,18511.31
2023-02-15T04:34:31.679Z,18517.41
2023-02-15T04:36:59.776Z,18513.34
2023-02-15T04:39:29.393Z,18507.25
2023-02-15T04:41:57.491Z,18545.84
2023-02-15T04:44:25.656Z,18553.97
2023-02-15T04:46:53.778Z,18574.28
2023-02-15T04:49:21.858Z,18545.84
2023-02-15T04:51:49.969Z,18527.56
2023-02-15T04:54:18.088Z,18517.41
2023-02-15T04:56:47.547Z,18507.25
2023-02-15T04:59:16.110Z,18529.59
2023-02-15T05:01:44.336Z,18497.09
2023-02-15T05:04:12.768Z,18474.75
2023-02-15T05:06:40.984Z,18523.50
2023-02-15T05:09:09.104Z,18517.41
2023-02-15T05:11:37.208Z,18503.19
2023-02-15T05:14:07.385Z,18488.97
2023-02-15T05:16:35.840Z,18497.09
2023-02-15T05:19:04.127Z,18513.34
2023-02-15T05:21:33.830Z,18497.09
2023-02-15T05:24:21.912Z,18499.13
2023-02-15T05:27:07.323Z,18450.38
2023-02-15T05:29:36.801Z,18497.09
2023-02-15T05:32:05.434Z,18454.44
2023-02-15T05:34:33.755Z,18531.63
2023-02-15T05:37:01.866Z,18478.81
2023-02-15T05:39:29.954Z,18476.78
2023-02-15T05:42:01.285Z,18484.91
2023-02-15T05:44:29.340Z,18505.22
2023-02-15T05:46:58.880Z,18488.97
2023-02-15T05:49:27.071Z,18491.00
2023-02-15T05:51:55.185Z,18493.03
2023-02-15T05:54:23.366Z,18458.50
2023-02-15T05:56:51.777Z,18505.22
2023-02-15T05:59:19.990Z,18507.25
2023-02-15T06:01:48.154Z,18509.28
2023-02-15T06:04:17.650Z,18491.00
2023-02-15T06:06:45.764Z,18497.09
2023-02-15T06:09:15.672Z,18509.28
2023-02-15T06:11:43.822Z,18462.56
2023-02-15T06:14:11.917Z,18482.88
2023-02-15T06:16:40.009Z,18491.00
2023-02-15T06:19:08.174Z,18499.13
2023-02-15T06:21:37.747Z,18493.03
2023-02-15T06:24:06.134Z,18499.13
2023-02-15T06:26:34.240Z,18517.41
2023-02-15T06:29:02.523Z,18501.16
2023-02-15T06:31:30.701Z,18497.09
2023-02-15T06:34:01.924Z,18515.38
2023-02-15T06:36:30.479Z,18556.00
2023-02-15T06:39:00.133Z,18495.06
2023-02-15T06:41:28.358Z,18513.34
2023-02-15T06:43:56.537Z,18517.41
2023-02-15T06:46:24.776Z,18521.47
2023-02-15T06:48:52.906Z,18515.38
2023-02-15T06:51:21.096Z,18521.47
2023-02-15T06:53:49.187Z,18533.66
2023-02-15T06:56:18.704Z,18497.09
2023-02-15T06:58:47.101Z,18531.63
2023-02-15T07:01:15.282Z,18531.63
2023-02-15T07:03:43.768Z,18509.28
2023-02-15T07:06:12.308Z,18537.72
2023-02-15T07:08:41.440Z,18523.50
2023-02-15T07:11:27.024Z,18484.91
2023-02-15T07:13:56.485Z,18539.75
2023-02-15T07:16:24.649Z,18507.25
2023-02-15T07:18:52.775Z,18543.81
2023-02-15T07:21:21.022Z,18549.91
2023-02-15T07:23:49.107Z,18533.66
2023-02-15T07:26:17.198Z,18558.03
2023-02-15T07:28:45.293Z,18558.03
2023-02-15T07:31:14.883Z,18570.22
2023-02-15T07:33:43.338Z,18531.63
2023-02-15T07:36:13.016Z,18558.03
2023-02-15T07:38:43.475Z,18566.16
2023-02-15T07:41:14.981Z,18592.59
2023-02-15T07:43:45.848Z,18578.38
2023-02-15T07:46:18.850Z,18578.38
2023-02-15T07:48:47.449Z,18594.63
2023-02-15T07:51:16.841Z,18588.53
2023-02-15T07:53:45.417Z,18602.75
2023-02-15T07:56:15.938Z,18596.66
2023-02-15T07:58:53.280Z,18637.28
2023-02-15T08:01:26.250Z,18661.66
2023-02-15T08:03:55.351Z,18702.28
2023-02-15T08:06:25.387Z,18651.50
2023-02-15T08:08:54.011Z,18665.72
2023-02-15T08:11:29.929Z,18712.47
2023-02-15T08:14:01.007Z,18692.13
2023-02-15T08:16:34.388Z,18714.50
2023-02-15T08:19:07.145Z,18720.59
2023-02-15T08:21:38.832Z,18753.09
2023-02-15T08:24:08.706Z,18744.97
2023-02-15T08:26:37.428Z,18718.56
2023-02-15T08:29:05.805Z,18728.72
2023-02-15T08:31:38.146Z,18736.84
2023-02-15T08:34:07.550Z,18714.50
2023-02-15T08:36:36.086Z,18749.03
2023-02-15T08:39:07.914Z,18751.06
2023-02-15T08:41:38.260Z,18757.16
2023-02-15T08:44:09.668Z,18834.38
2023-02-15T08:46:42.553Z,18781.53
2023-02-15T08:49:13.549Z,18870.94
2023-02-15T08:51:42.033Z,18854.69
2023-02-15T08:54:14.004Z,18856.72
2023-02-15T08:56:44.676Z,18858.75
2023-02-15T08:59:18.247Z,18836.41
2023-02-15T09:01:49.725Z,18858.75
2023-02-15T09:04:19.324Z,18911.56
2023-02-15T09:06:49.927Z,18903.44
2023-02-15T09:09:19.435Z,18911.56
2023-02-15T09:11:54.130Z,18895.31
2023-02-15T09:14:25.390Z,18881.09
2023-02-15T09:16:56.055Z,18893.28
2023-02-15T09:19:26.366Z,18879.06
2023-02-15T09:21:55.261Z,18909.53
2023-02-15T09:24:23.995Z,18903.44
2023-02-15T09:26:52.199Z,18938.00
2023-02-15T09:29:26.006Z,18990.81
2023-02-15T09:31:55.550Z,18976.59
2023-02-15T09:34:25.297Z,18982.69
2023-02-15T09:36:54.421Z,18982.69
2023-02-15T09:39:25.714Z,18998.94
2023-02-15T09:42:44.633Z,19013.16
2023-02-15T09:45:28.934Z,19076.16
2023-02-15T09:48:40.755Z,19023.34
2023-02-15T09:51:50.564Z,19066.00
2023-02-15T09:54:52.345Z,19082.25
2023-02-15T09:57:37.302Z,19055.84
2023-02-15T10:00:21.274Z,19082.25
2023-02-15T10:03:21.189Z,19088.34
2023-02-15T10:06:31.700Z,19124.94
2023-02-15T10:09:27.419Z,19110.72
2023-02-15T10:12:21.816Z,19139.16
2023-02-15T10:15:30.577Z,19155.41
2023-02-15T10:18:21.705Z,19163.53
2023-02-15T10:21:05.676Z,19147.28
2023-02-15T10:24:01.043Z,19171.66
2023-02-15T10:26:39.460Z,19175.72
2023-02-15T10:29:18.249Z,19177.75
2023-02-15T10:31:54.133Z,19124.94
2023-02-15T10:34:36.762Z,19187.91
2023-02-15T10:37:36.194Z,19214.34
2023-02-15T10:40:16.891Z,19236.69
2023-02-15T10:43:16.346Z,19248.88
2023-02-15T10:46:03.738Z,19273.28
2023-02-15T10:49:24.920Z,19303.75
2023-02-15T10:52:30.244Z,19297.66
2023-02-15T10:55:12.588Z,19326.09
2023-02-15T10:57:59.723Z,19391.13
2023-02-15T11:00:39.995Z,19328.13
2023-02-15T11:03:34.132Z,19344.41
2023-02-15T11:06:11.186Z,19338.28
2023-02-15T11:08:46.042Z,19326.09
2023-02-15T11:11:23.437Z,19320.00
2023-02-15T11:13:58.746Z,19334.22
2023-02-15T11:16:33.089Z,19366.75
2023-02-15T11:19:10.679Z,19348.47
2023-02-15T11:21:45.419Z,19362.69
2023-02-15T11:24:20.905Z,19340.31
2023-02-15T11:26:59.428Z,19362.69
2023-02-15T11:29:35.444Z,19368.78
2023-02-15T11:32:19.835Z,19370.81
2023-02-15T11:34:55.757Z,19370.81
2023-02-15T11:37:34.507Z,19350.50
2023-02-15T11:40:20.335Z,19380.97
2023-02-15T11:42:51.525Z,19389.09
2023-02-15T11:45:29.471Z,19376.91
2023-02-15T11:47:59.216Z,19372.84
2023-02-15T11:50:31.237Z,19397.22
2023-02-15T11:53:04.157Z,19370.81
2023-02-15T11:55:35.891Z,19395.19
2023-02-15T11:58:39.805Z,19358.63
2023-02-15T12:01:18.796Z,19399.25
2023-02-15T12:03:50.789Z,19376.91
2023-02-15T12:06:26.316Z,19401.28
2023-02-15T12:09:05.701Z,19378.94
2023-02-15T12:11:39.697Z,19389.09
2023-02-15T12:14:10.732Z,19419.59
2023-02-15T12:16:47.573Z,19423.66
2023-02-15T12:19:32.537Z,19425.69
2023-02-15T12:22:04.210Z,19421.63
2023-02-15T12:24:40.321Z,19441.94
2023-02-15T12:27:20.152Z,19431.78
2023-02-15T12:29:53.580Z,19460.22
2023-02-15T12:32:27.248Z,19490.72
2023-02-15T12:35:03.836Z,19492.75
2023-02-15T12:37:35.751Z,19468.34
2023-02-15T12:40:21.981Z,19480.53
2023-02-15T12:42:51.517Z,19488.69
2023-02-15T12:45:27.362Z,19476.47
2023-02-15T12:48:17.776Z,19446.00
2023-02-15T12:50:54.962Z,19468.34
2023-02-15T12:53:32.458Z,19494.78
2023-02-15T12:56:02.809Z,19549.63
2023-02-15T12:58:38.205Z,19645.16
2023-02-15T13:01:20.347Z,19756.94
2023-02-15T13:04:01.500Z,19874.81
2023-02-15T13:06:34.045Z,19919.53
2023-02-15T13:09:21.137Z,19939.84
2023-02-15T13:12:20.252Z,19913.44
2023-02-15T13:15:00.244Z,19817.91
2023-02-15T13:17:32.088Z,19728.47
2023-02-15T13:20:10.746Z,19724.41
2023-02-15T13:22:45.246Z,19742.72
2023-02-15T13:25:21.236Z,19687.84
2023-02-15T13:27:55.082Z,19732.53
2023-02-15T13:30:35.840Z,19695.97
2023-02-15T13:33:08.573Z,19687.84
2023-02-15T13:35:49.211Z,19706.13
2023-02-15T13:38:57.583Z,19681.75
2023-02-15T13:41:36.497Z,19708.16
2023-02-15T13:44:19.706Z,19689.88
2023-02-15T13:47:12.909Z,19693.94
2023-02-15T13:49:58.200Z,19681.75
2023-02-15T13:52:29.390Z,19665.47
2023-02-15T13:55:27.247Z,19673.59
2023-02-15T13:58:48.989Z,19679.72
2023-02-15T14:01:26.809Z,19681.75
2023-02-15T14:04:26.619Z,19651.25
2023-02-15T14:07:31.018Z,19663.44
2023-02-15T14:10:25.044Z,19714.25
2023-02-15T14:13:14.583Z,19659.38
2023-02-15T14:15:51.551Z,19677.66
2023-02-15T14:18:32.514Z,19671.56
2023-02-15T14:21:12.537Z,19645.16
2023-02-15T14:24:10.720Z,19655.31
2023-02-15T14:26:51.414Z,19649.22
2023-02-15T14:29:44.481Z,19598.41
2023-02-15T14:32:25.513Z,19610.59
2023-02-15T14:34:59.012Z,19639.06
2023-02-15T14:37:44.614Z,19653.28
2023-02-15T14:40:45.525Z,19624.84
2023-02-15T14:43:26.780Z,19663.44
2023-02-15T14:45:58.116Z,19606.53
2023-02-15T14:48:33.311Z,19604.50
2023-02-15T14:51:02.397Z,19618.75
2023-02-15T14:53:42.896Z,19592.31
2023-02-15T14:56:26.937Z,19586.22
2023-02-15T14:59:21.825Z,19598.41
2023-02-15T15:02:00.547Z,19608.56
2023-02-15T15:04:35.181Z,19635.00
2023-02-15T15:07:16.185Z,19594.34
2023-02-15T15:09:59.903Z,19635.00
2023-02-15T15:12:42.369Z,19653.28
2023-02-15T15:15:15.824Z,19632.97
2023-02-15T15:18:02.045Z,19590.28
2023-02-15T15:20:51.603Z,19559.81
2023-02-15T15:23:45.077Z,19529.31
2023-02-15T15:26:37.759Z,19559.81
2023-02-15T15:29:08.762Z,19525.25
2023-02-15T15:31:53.082Z,19537.44
2023-02-15T15:35:07.427Z,19545.56
2023-02-15T15:38:30.086Z,19541.50
2023-02-15T15:41:19.647Z,19515.09
2023-02-15T15:45:05.182Z,19527.28
2023-02-15T15:48:07.427Z,19494.78
2023-02-15T15:50:36.748Z,19500.88
2023-02-15T15:53:07.205Z,19470.38
2023-02-15T15:55:36.648Z,19468.34
2023-02-15T15:58:09.101Z,19433.81
2023-02-15T16:00:48.472Z,19450.06
2023-02-15T16:03:22.068Z,19421.63
2023-02-15T16:05:53.792Z,19431.78
2023-02-15T16:08:30.580Z,19368.78
2023-02-15T16:11:00.118Z,19342.34
2023-02-15T16:13:29.188Z,19378.94
2023-02-15T16:15:58.750Z,19376.91
2023-02-15T16:18:29.693Z,19360.66
2023-02-15T16:21:01.507Z,19348.47
2023-02-15T16:24:08.822Z,19344.41
2023-02-15T16:27:21.264Z,19313.91
2023-02-15T16:29:49.344Z,19338.28
2023-02-15T16:32:23.171Z,19293.59
2023-02-15T16:34:59.983Z,19305.78
2023-02-15T16:37:33.371Z,19313.91
2023-02-15T16:40:02.214Z,19315.94
2023-02-15T16:42:30.579Z,19301.72
2023-02-15T16:45:09.186Z,19254.97
2023-02-15T16:47:45.711Z,19271.25
2023-02-15T16:50:22.685Z,19285.47
2023-02-15T16:52:52.401Z,19261.06
2023-02-15T16:55:26.271Z,19277.34
2023-02-15T16:58:01.772Z,19232.63
2023-02-15T17:00:36.517Z,19246.84
2023-02-15T17:03:23.912Z,19224.50
2023-02-15T17:05:55.944Z,19226.53
2023-02-15T17:08:30.360Z,19196.06
2023-02-15T17:11:15.794Z,19224.50
2023-02-15T17:14:16.479Z,19206.22
2023-02-15T17:16:50.326Z,19206.22
2023-02-15T17:19:25.257Z,19196.06
2023-02-15T17:21:57.404Z,19161.50
2023-02-15T17:24:37.616Z,19187.91
2023-02-15T17:27:13.955Z,19214.34
2023-02-15T17:29:49.272Z,19173.69
2023-02-15T17:32:21.590Z,19175.72
2023-02-15T17:35:18.286Z,19159.47
2023-02-15T17:37:49.160Z,19145.25
2023-02-15T17:40:24.544Z,19161.50
2023-02-15T17:42:53.275Z,19173.69
2023-02-15T17:45:23.309Z,19173.69
2023-02-15T17:47:52.074Z,19167.59
2023-02-15T17:50:26.703Z,19169.63
2023-02-15T17:52:57.887Z,19200.13
2023-02-15T17:55:43.448Z,19185.88
2023-02-15T17:58:14.880Z,19167.59
2023-02-15T18:01:04.612Z,19169.63
2023-02-15T18:04:01.244Z,19165.56
2023-02-15T18:06:48.406Z,19159.47
2023-02-15T18:09:37.189Z,19149.31
2023-02-15T18:12:20.402Z,19108.69
2023-02-15T18:14:48.575Z,19171.66
2023-02-15T18:17:19.013Z,19157.44
2023-02-15T18:19:48.175Z,19183.84
2023-02-15T18:22:20.166Z,19131.03
2023-02-15T18:24:50.866Z,19194.03
2023-02-15T18:27:18.930Z,19181.81
2023-02-15T18:29:48.517Z,19183.84
2023-02-15T18:32:23.360Z,19147.28
2023-02-15T18:34:52.116Z,19133.06
2023-02-15T18:37:23.504Z,19155.41
2023-02-15T18:39:54.198Z,19147.28
2023-02-15T18:42:27.026Z,19153.38
2023-02-15T18:44:58.879Z,19131.03
2023-02-15T18:47:27.550Z,19139.16
2023-02-15T18:49:56.552Z,19131.03
2023-02-15T18:52:34.298Z,19094.44
2023-02-15T18:55:07.932Z,19108.69
2023-02-15T18:57:36.120Z,19094.44
2023-02-15T19:00:05.842Z,19094.44
2023-02-15T19:02:33.985Z,19086.31
2023-02-15T19:05:02.116Z,19090.38
2023-02-15T19:07:35.857Z,19082.25
2023-02-15T19:10:09.863Z,19074.13
2023-02-15T19:12:37.989Z,19070.06
2023-02-15T19:15:08.219Z,19104.59
2023-02-15T19:17:36.570Z,19072.09
2023-02-15T19:20:04.903Z,19078.19
2023-02-15T19:22:35.071Z,19078.19
2023-02-15T19:25:07.013Z,19074.13
2023-02-15T19:27:37.092Z,19059.91
2023-02-15T19:30:16.271Z,19070.06
2023-02-15T19:32:44.945Z,19068.03
2023-02-15T19:35:16.527Z,19039.59
2023-02-15T19:37:50.832Z,19035.53
2023-02-15T19:40:24.208Z,19096.47
2023-02-15T19:42:52.910Z,19011.13
2023-02-15T19:45:24.249Z,19045.69
2023-02-15T19:47:53.939Z,19027.41
2023-02-15T19:50:25.510Z,19017.25
2023-02-15T19:52:55.189Z,19055.84
2023-02-15T19:55:26.602Z,19051.78
2023-02-15T19:57:56.904Z,19015.19
2023-02-15T20:00:29.135Z,19025.38
2023-02-15T20:02:59.448Z,19017.25
2023-02-15T20:05:30.060Z,19015.19
2023-02-15T20:08:00.019Z,19037.56
2023-02-15T20:10:31.358Z,19043.66
2023-02-15T20:13:00.049Z,19011.13
2023-02-15T20:15:31.336Z,19037.56
2023-02-15T20:18:03.895Z,19007.06
2023-02-15T20:20:38.397Z,19017.25
2023-02-15T20:23:18.186Z,18986.75
2023-02-15T20:25:46.683Z,18984.72
2023-02-15T20:28:20.779Z,18986.75
2023-02-15T20:30:49.888Z,18970.50
2023-02-15T20:33:19.281Z,18988.78
2023-02-15T20:35:49.208Z,19039.59
2023-02-15T20:38:24.755Z,19017.25
2023-02-15T20:41:12.103Z,19031.47
2023-02-15T20:43:40.721Z,19023.34
2023-02-15T20:46:09.133Z,19033.50
2023-02-15T20:48:37.590Z,19013.16
2023-02-15T20:51:06.951Z,19013.16
2023-02-15T20:53:36.510Z,19023.34
2023-02-15T20:56:04.956Z,19051.78
2023-02-15T20:58:33.206Z,19053.81
2023-02-15T21:01:01.618Z,19037.56
2023-02-15T21:03:32.494Z,19045.69
2023-02-15T21:06:01.755Z,19057.88
2023-02-15T21:08:29.886Z,19021.31
2023-02-15T21:11:01.670Z,19045.69
2023-02-15T21:13:34.560Z,18990.81
2023-02-15T21:16:04.205Z,19033.50
2023-02-15T21:18:34.939Z,18994.88
2023-02-15T21:21:06.526Z,19017.25
2023-02-15T21:23:40.430Z,19029.44
2023-02-15T21:26:19.452Z,19023.34
2023-02-15T21:28:49.128Z,19005.03
2023-02-15T21:31:19.744Z,19021.31
2023-02-15T21:33:47.981Z,18994.88
2023-02-15T21:36:19.374Z,19000.97
2023-02-15T21:38:49.631Z,19013.16
2023-02-15T21:41:40.224Z,19003.00
2023-02-15T21:44:35.530Z,18990.81
2023-02-15T21:47:21.230Z,19000.97
2023-02-15T21:49:49.326Z,19031.47
2023-02-15T21:52:23.076Z,19000.97
2023-02-15T21:54:51.169Z,18968.47
2023-02-15T21:57:22.376Z,19003.00
2023-02-15T21:59:50.711Z,18988.78
2023-02-15T22:02:30.320Z,19023.34
2023-02-15T22:05:00.709Z,19027.41
2023-02-15T22:07:28.857Z,19009.09
2023-02-15T22:09:56.962Z,18974.56
2023-02-15T22:12:26.453Z,18982.69
2023-02-15T22:14:55.299Z,18972.53
2023-02-15T22:17:29.317Z,19027.41
2023-02-15T22:19:58.456Z,18986.75
2023-02-15T22:22:26.904Z,19051.78
2023-02-15T22:24:55.029Z,19000.97
2023-02-15T22:27:29.517Z,18970.50
2023-02-15T22:29:58.776Z,19013.16
2023-02-15T22:32:28.367Z,19027.41
2023-02-15T22:34:56.551Z,18988.78
2023-02-15T22:37:24.614Z,19005.03
2023-02-15T22:39:52.697Z,19027.41
2023-02-15T22:42:26.172Z,18982.69
2023-02-15T22:44:58.100Z,18980.66
2023-02-15T22:47:32.056Z,18994.88
2023-02-15T22:50:00.216Z,18990.81
2023-02-15T22:52:28.317Z,18990.81
2023-02-15T22:54:56.472Z,18964.41
2023-02-15T22:57:32.004Z,18970.50
2023-02-15T23:00:02.067Z,18954.25
2023-02-15T23:02:30.239Z,18966.44
2023-02-15T23:04:58.398Z,18946.13
2023-02-15T23:07:26.509Z,18942.06
2023-02-15T23:09:54.633Z,18996.91
2023-02-15T23:12:28.445Z,18950.19
2023-02-15T23:14:58.373Z,18970.50
2023-02-15T23:17:27.916Z,18968.47
2023-02-15T23:19:56.018Z,18962.38
2023-02-15T23:22:24.143Z,18996.91
2023-02-15T23:24:54.316Z,18966.44
2023-02-15T23:27:40.180Z,18948.16
2023-02-15T23:30:15.666Z,18935.97
2023-02-15T23:32:45.162Z,18972.53
2023-02-15T23:35:16.698Z,18950.19
2023-02-15T23:37:45.193Z,18942.06
2023-02-15T23:40:33.841Z,18948.16
2023-02-15T23:43:01.970Z,18921.75
2023-02-15T23:45:32.516Z,18964.41
2023-02-15T23:48:19.731Z,18942.06
2023-02-15T23:50:47.891Z,18933.94
2023-02-15T23:53:15.977Z,18944.09
2023-02-15T23:55:45.742Z,18960.34
2023-02-15T23:58:20.151Z,18921.75
